Time;durP1;ratioP1;P1;durP2;ratioP2;P2;SDS_P1;SDS_P2;PMS_P1;PMS_P2;Temp;Humidity;BMP_temperature;BMP_pressure;BME280_temperature;BME280_humidity;BME280_pressure;Samples;Min_cycle;Max_cycle;Signal;HPM_P1;HPM_P2
2022/04/04 01:31:59;;;;;;;6.68;4.07;;;;;;;;;;5092869;28;20051;-71
2022/04/04 04:04:55;;;;;;;8.10;4.40;;;;;;;;;;5062107;28;20062;-69
2022/04/04 04:07:24;;;;;;;10.25;4.60;;;;;;;;;;5092592;28;20020;-69
2022/04/04 04:09:51;;;;;;;8.73;3.97;;;;;;;;;;5071433;28;20028;-69
2022/04/04 04:12:17;;;;;;;10.82;4.22;;;;;;;;;;5093635;28;20024;-71
2022/04/04 04:14:43;;;;;;;5.55;3.58;;;;;;;;;;5094746;28;20028;-68
2022/04/04 04:17:10;;;;;;;7.38;4.10;;;;;;;;;;5074043;28;20116;-69
2022/04/04 04:22:21;;;;;;;9.75;4.88;;;;;;;;;;5091455;28;20490;-69
2022/04/04 04:24:48;;;;;;;11.43;4.60;;;;;;;;;;5087187;28;20054;-69
2022/04/04 04:27:14;;;;;;;9.07;4.75;;;;;;;;;;5074167;28;20028;-69
2022/04/04 04:29:40;;;;;;;9.70;4.13;;;;;;;;;;5092151;28;20027;-69
2022/04/04 04:32:08;;;;;;;8.50;3.88;;;;;;;;;;5073995;28;20473;-69
2022/04/04 04:34:34;;;;;;;8.15;4.05;;;;;;;;;;5092334;28;20012;-69
2022/04/04 04:37:00;;;;;;;14.00;4.82;;;;;;;;;;5074009;28;20136;-69
2022/04/04 04:39:26;;;;;;;7.38;4.18;;;;;;;;;;5083654;28;20032;-69
2022/04/04 04:41:53;;;;;;;6.32;4.40;;;;;;;;;;5073458;28;20392;-71
2022/04/04 04:47:43;;;;;;;10.55;4.53;;;;;;;;;;5095230;28;20031;-69
2022/04/04 04:50:10;;;;;;;8.57;4.32;;;;;;;;;;5093171;28;20481;-69
2022/04/04 04:52:36;;;;;;;9.88;4.07;;;;;;;;;;5091212;28;20404;-69
2022/04/04 04:55:04;;;;;;;5.75;3.70;;;;;;;;;;5080055;28;20048;-69
2022/04/04 04:57:30;;;;;;;11.18;4.45;;;;;;;;;;5091888;28;20050;-69
2022/04/04 04:59:57;;;;;;;10.25;5.10;;;;;;;;;;5091688;28;20555;-69
2022/04/04 05:02:23;;;;;;;11.63;4.88;;;;;;;;;;5091273;28;20095;-69
2022/04/04 05:04:49;;;;;;;13.60;5.05;;;;;;;;;;5091099;28;20157;-69
2022/04/04 05:07:15;;;;;;;12.70;4.40;;;;;;;;;;5073485;28;20499;-69
2022/04/04 05:09:42;;;;;;;7.93;4.25;;;;;;;;;;5090186;28;20458;-69
2022/04/04 05:12:08;;;;;;;8.55;4.47;;;;;;;;;;5072613;28;20438;-70
2022/04/04 05:14:36;;;;;;;8.52;5.05;;;;;;;;;;5090779;28;20324;-69
2022/04/04 05:17:02;;;;;;;10.85;5.32;;;;;;;;;;5091845;28;20085;-69
2022/04/04 05:19:28;;;;;;;11.07;4.20;;;;;;;;;;5085838;28;20031;-69
2022/04/04 05:21:54;;;;;;;8.38;4.78;;;;;;;;;;5079234;28;20021;-69
2022/04/04 05:24:20;;;;;;;9.00;4.60;;;;;;;;;;5078182;28;20124;-69
2022/04/04 05:26:46;;;;;;;9.70;4.82;;;;;;;;;;5080094;28;20016;-78
2022/04/04 05:29:12;;;;;;;9.23;4.50;;;;;;;;;;5090599;28;20016;-75
2022/04/04 05:31:38;;;;;;;9.68;4.70;;;;;;;;;;5072012;28;20126;-74
2022/04/04 05:34:05;;;;;;;8.25;5.30;;;;;;;;;;5090312;28;20031;-75
2022/04/04 05:36:33;;;;;;;8.18;4.93;;;;;;;;;;5090330;28;20016;-74
2022/04/04 05:38:59;;;;;;;13.18;4.97;;;;;;;;;;5071221;28;20023;-76
2022/04/04 05:41:27;;;;;;;10.20;5.32;;;;;;;;;;5089907;28;20023;-75
2022/04/04 05:43:53;;;;;;;8.00;5.07;;;;;;;;;;5090957;28;20043;-75
2022/04/04 05:46:20;;;;;;;9.70;4.90;;;;;;;;;;5069276;28;20469;-75
2022/04/04 05:48:46;;;;;;;9.45;4.85;;;;;;;;;;5082375;28;20028;-74
2022/04/04 05:51:17;;;;;;;7.22;3.97;;;;;;;;;;5068655;28;20081;-75
2022/04/04 05:53:44;;;;;;;10.07;4.43;;;;;;;;;;5086248;28;20035;-74
2022/04/04 05:56:10;;;;;;;8.23;4.60;;;;;;;;;;5063651;28;20032;-74
2022/04/04 05:58:36;;;;;;;6.55;4.18;;;;;;;;;;5090426;28;20069;-74
2022/04/04 06:01:03;;;;;;;11.27;4.15;;;;;;;;;;5090061;28;20020;-74
2022/04/04 06:03:30;;;;;;;11.90;5.28;;;;;;;;;;5089311;28;20035;-74
2022/04/04 06:05:56;;;;;;;10.48;4.80;;;;;;;;;;5072007;28;20063;-74
2022/04/04 06:08:23;;;;;;;8.52;4.45;;;;;;;;;;5089629;28;20029;-75
2022/04/04 06:10:49;;;;;;;10.13;4.00;;;;;;;;;;5076622;28;20035;-74
2022/04/04 06:13:15;;;;;;;8.02;5.03;;;;;;;;;;5069819;28;20474;-75
2022/04/04 06:15:42;;;;;;;8.63;4.28;;;;;;;;;;5052089;28;20378;-75
2022/04/04 06:18:09;;;;;;;8.38;4.57;;;;;;;;;;5070261;28;20073;-74
2022/04/04 06:20:35;;;;;;;14.98;4.05;;;;;;;;;;5052451;28;20044;-75
2022/04/04 06:23:01;;;;;;;9.02;4.55;;;;;;;;;;5069712;28;20071;-75
2022/04/04 06:25:27;;;;;;;8.75;4.55;;;;;;;;;;5078671;28;20040;-75
2022/04/04 06:27:53;;;;;;;9.05;4.57;;;;;;;;;;5088047;28;20024;-75
2022/04/04 06:30:20;;;;;;;10.90;4.95;;;;;;;;;;5090010;28;20062;-75
2022/04/04 06:32:47;;;;;;;15.10;6.60;;;;;;;;;;5071652;28;20028;-74
2022/04/04 06:35:13;;;;;;;8.07;4.47;;;;;;;;;;5090092;28;20024;-75
2022/04/04 06:37:39;;;;;;;8.30;4.43;;;;;;;;;;5089514;28;20248;-75
2022/04/04 06:40:06;;;;;;;12.43;5.05;;;;;;;;;;5071787;28;20386;-75
2022/04/04 06:42:39;;;;;;;10.82;4.70;;;;;;;;;;5071569;28;20121;-75
2022/04/04 06:45:06;;;;;;;8.98;4.88;;;;;;;;;;5090022;28;20039;-74
2022/04/04 06:47:32;;;;;;;9.93;4.85;;;;;;;;;;5071540;28;20024;-74
2022/04/04 06:49:59;;;;;;;10.60;4.70;;;;;;;;;;5090159;28;20054;-74
2022/04/04 06:52:25;;;;;;;7.90;4.63;;;;;;;;;;5071091;28;20028;-75
2022/04/04 06:54:51;;;;;;;7.35;4.43;;;;;;;;;;5088425;28;20488;-75
2022/04/04 06:57:18;;;;;;;10.63;4.43;;;;;;;;;;5072001;28;20452;-75
2022/04/04 06:59:44;;;;;;;10.63;4.97;;;;;;;;;;5090131;28;20043;-75
2022/04/04 07:02:10;;;;;;;8.77;4.97;;;;;;;;;;5087456;28;20016;-75
2022/04/04 07:04:40;;;;;;;8.73;5.07;;;;;;;;;;5084054;28;20457;-75
2022/04/04 07:07:07;;;;;;;8.52;4.72;;;;;;;;;;5089680;28;20031;-75
2022/04/04 07:09:33;;;;;;;7.35;4.20;;;;;;;;;;5089560;28;20111;-74
2022/04/04 07:11:59;;;;;;;11.27;5.95;;;;;;;;;;5070183;28;20119;-75
2022/04/04 07:14:25;;;;;;;9.30;4.78;;;;;;;;;;5074994;28;20065;-75
2022/04/04 07:16:53;;;;;;;17.05;5.30;;;;;;;;;;5093744;28;20465;-74
2022/04/04 07:19:23;;;;;;;11.30;5.15;;;;;;;;;;5093456;28;20154;-76
2022/04/04 07:21:51;;;;;;;11.98;4.53;;;;;;;;;;5093534;28;20101;-75
2022/04/04 07:24:17;;;;;;;14.23;4.25;;;;;;;;;;5075441;28;20071;-75
2022/04/04 07:26:43;;;;;;;11.23;5.32;;;;;;;;;;5077734;28;20036;-75
2022/04/04 07:29:09;;;;;;;12.40;4.13;;;;;;;;;;5072853;28;20032;-75
2022/04/04 07:31:36;;;;;;;11.43;4.28;;;;;;;;;;5072810;28;20027;-74
2022/04/04 07:34:02;;;;;;;8.85;4.80;;;;;;;;;;5073070;28;20063;-75
2022/04/04 07:36:29;;;;;;;7.10;3.90;;;;;;;;;;5055334;28;20031;-74
2022/04/04 07:38:55;;;;;;;12.07;4.15;;;;;;;;;;5089587;28;20032;-74
2022/04/04 07:43:56;;;;;;;4.97;2.53;;;;;;;;;;3322680;26;20257;-69
2022/04/04 07:46:22;;;;;;;4.90;2.40;;;;;;;;;;5072077;28;20416;-70
2022/04/04 07:48:49;;;;;;;3.95;2.38;;;;;;;;;;5072737;28;20028;-69
2022/04/04 07:51:15;;;;;;;5.15;2.08;;;;;;;;;;5072919;28;20040;-69
2022/04/04 07:53:41;;;;;;;13.05;3.83;;;;;;;;;;5070639;28;20032;-69
2022/04/04 07:56:07;;;;;;;4.03;2.72;;;;;;;;;;5065297;28;20065;-70
2022/04/04 07:58:33;;;;;;;6.13;2.30;;;;;;;;;;5069916;28;20470;-69
2022/04/04 08:00:59;;;;;;;6.07;3.40;;;;;;;;;;5064032;28;20338;-69
2022/04/04 08:03:25;;;;;;;5.32;3.22;;;;;;;;;;5064047;28;20285;-69
2022/04/04 08:05:51;;;;;;;4.07;2.65;;;;;;;;;;5059248;28;20115;-69
2022/04/04 08:08:18;;;;;;;5.22;3.47;;;;;;;;;;5063771;28;20028;-69
2022/04/04 08:10:44;;;;;;;3.58;2.40;;;;;;;;;;5062502;28;20067;-69
2022/04/04 08:13:10;;;;;;;7.78;2.80;;;;;;;;;;5066648;28;20033;-69
2022/04/04 08:15:36;;;;;;;5.70;3.40;;;;;;;;;;5063754;28;20024;-69
2022/04/04 08:18:03;;;;;;;7.43;3.45;;;;;;;;;;5063896;28;20033;-69
2022/04/04 08:20:29;;;;;;;3.80;2.55;;;;;;;;;;5063906;28;20032;-69
2022/04/04 08:22:55;;;;;;;5.90;2.75;;;;;;;;;;5065831;28;20150;-69
2022/04/04 08:25:21;;;;;;;1.40;1.10;;;;;;;;;;5058992;28;20108;-70
2022/04/04 08:27:47;;;;;;;3.92;2.58;;;;;;;;;;5064311;28;20474;-69
2022/04/04 08:30:15;;;;;;;6.88;1.88;;;;;;;;;;5055813;28;20037;-69
2022/04/04 08:32:42;;;;;;;7.43;2.55;;;;;;;;;;5054885;28;20358;-70
2022/04/04 08:35:09;;;;;;;4.05;1.95;;;;;;;;;;5056267;28;20095;-69
2022/04/04 08:37:35;;;;;;;1.77;1.35;;;;;;;;;;5064330;28;20119;-70
2022/04/04 08:40:03;;;;;;;7.03;2.28;;;;;;;;;;5067906;28;20025;-70
2022/04/04 08:42:29;;;;;;;6.93;2.67;;;;;;;;;;5070406;28;20082;-70
2022/04/04 08:44:59;;;;;;;5.10;2.70;;;;;;;;;;5059887;28;20040;-69
2022/04/04 08:47:25;;;;;;;6.28;2.92;;;;;;;;;;5070658;28;20377;-70
2022/04/04 08:49:52;;;;;;;7.75;2.92;;;;;;;;;;5070221;28;20028;-70
2022/04/04 08:52:18;;;;;;;3.70;2.05;;;;;;;;;;5062752;28;20363;-69
2022/04/04 08:54:45;;;;;;;5.78;3.15;;;;;;;;;;5059099;28;20044;-69
2022/04/04 08:57:11;;;;;;;4.70;2.85;;;;;;;;;;5069914;28;20111;-69
2022/04/04 08:59:38;;;;;;;7.35;3.10;;;;;;;;;;5064129;28;20329;-69
2022/04/04 09:02:04;;;;;;;1.60;0.95;;;;;;;;;;5058271;28;20029;-69
2022/04/04 09:04:33;;;;;;;5.95;3.00;;;;;;;;;;5058283;28;20047;-70
2022/04/04 09:07:04;;;;;;;7.25;3.33;;;;;;;;;;5056232;28;20035;-70
2022/04/04 09:09:44;;;;;;;2.60;1.45;;;;;;;;;;5055325;28;20473;-69
2022/04/04 09:12:11;;;;;;;6.35;3.00;;;;;;;;;;5063766;28;20075;-69
2022/04/04 09:14:46;;;;;;;6.00;3.30;;;;;;;;;;5065184;28;20028;-69
2022/04/04 09:17:13;;;;;;;7.10;2.75;;;;;;;;;;5058432;28;20119;-69
2022/04/04 09:19:40;;;;;;;4.60;2.78;;;;;;;;;;5061458;28;20075;-69
2022/04/04 09:22:16;;;;;;;2.67;1.90;;;;;;;;;;5059499;28;20021;-69
2022/04/04 09:24:43;;;;;;;5.68;3.03;;;;;;;;;;5062851;28;20125;-70
2022/04/04 09:27:12;;;;;;;1.58;1.48;;;;;;;;;;5061249;28;20016;-69
2022/04/04 09:29:42;;;;;;;5.30;2.78;;;;;;;;;;5059892;28;20039;-69
2022/04/04 09:32:14;;;;;;;4.97;2.55;;;;;;;;;;5055828;28;20100;-69
2022/04/04 09:34:49;;;;;;;2.45;1.83;;;;;;;;;;5062184;28;20044;-69
2022/04/04 09:37:16;;;;;;;5.30;2.70;;;;;;;;;;5062003;28;20025;-69
2022/04/04 09:39:42;;;;;;;5.25;2.83;;;;;;;;;;5058380;28;20564;-69
2022/04/04 09:42:17;;;;;;;4.88;2.22;;;;;;;;;;5069394;28;20112;-69
2022/04/04 09:44:56;;;;;;;4.97;2.80;;;;;;;;;;5049340;28;20037;-69
2022/04/04 09:47:23;;;;;;;3.97;2.70;;;;;;;;;;5069321;28;20036;-69
2022/04/04 09:49:50;;;;;;;4.57;3.22;;;;;;;;;;5054263;28;20029;-69
2022/04/04 09:52:16;;;;;;;5.05;3.53;;;;;;;;;;5070174;28;20017;-69
2022/04/04 09:54:43;;;;;;;4.72;3.25;;;;;;;;;;5070267;28;20032;-69
2022/04/04 09:57:13;;;;;;;5.57;3.38;;;;;;;;;;5068305;28;20381;-69
2022/04/04 09:59:39;;;;;;;;;;;;;;;;;;5070750;28;20385;-69
2022/04/04 10:02:05;;;;;;;2.78;2.25;;;;;;;;;;5068537;28;20369;-69
2022/04/04 10:04:32;;;;;;;1.20;0.93;;;;;;;;;;5069846;28;20024;-69
2022/04/04 10:07:01;;;;;;;1.67;1.58;;;;;;;;;;5069765;28;20044;-69
2022/04/04 10:09:27;;;;;;;5.50;2.20;;;;;;;;;;5069766;28;20388;-69
2022/04/04 10:11:53;;;;;;;2.50;1.65;;;;;;;;;;5068863;28;20114;-69
2022/04/04 10:14:20;;;;;;;5.95;3.35;;;;;;;;;;5070203;28;20024;-69
2022/04/04 10:16:46;;;;;;;3.78;1.85;;;;;;;;;;5069566;28;20039;-69
2022/04/04 10:19:14;;;;;;;7.85;4.43;;;;;;;;;;5069994;28;20321;-69
2022/04/04 10:21:41;;;;;;;3.17;1.90;;;;;;;;;;5051053;28;20037;-69
2022/04/04 10:24:08;;;;;;;3.72;2.53;;;;;;;;;;5051750;28;20503;-69
2022/04/04 10:26:36;;;;;;;4.88;3.05;;;;;;;;;;5069172;28;20416;-69
2022/04/04 10:29:08;;;;;;;4.22;2.05;;;;;;;;;;5051724;28;20024;-68
2022/04/04 10:31:42;;;;;;;7.63;3.58;;;;;;;;;;5069836;28;20036;-68
2022/04/04 10:34:13;;;;;;;1.98;1.20;;;;;;;;;;5069728;28;20025;-69
2022/04/04 10:36:53;;;;;;;2.03;1.48;;;;;;;;;;5051953;28;20462;-69
2022/04/04 10:39:31;;;;;;;1.02;0.95;;;;;;;;;;5051882;28;20028;-70
2022/04/04 10:41:57;;;;;;;1.77;1.35;;;;;;;;;;5069244;28;20424;-69
2022/04/04 10:44:43;;;;;;;6.60;3.88;;;;;;;;;;5069772;28;20554;-69
2022/04/04 10:47:23;;;;;;;10.23;3.78;;;;;;;;;;5069395;28;20021;-68
2022/04/04 10:49:49;;;;;;;0.80;0.65;;;;;;;;;;5073695;28;20116;-68
2022/04/04 10:52:18;;;;;;;6.00;2.97;;;;;;;;;;5074312;28;20032;-68
2022/04/04 10:57:48;;;;;;;1.40;0.90;;;;;;;;;;5075671;28;20524;-68
2022/04/04 11:00:16;;;;;;;1.85;0.90;;;;;;;;;;5073659;28;20428;-68
2022/04/04 11:02:44;;;;;;;10.98;3.40;;;;;;;;;;5073360;28;20016;-68
2022/04/04 11:08:02;;;;;;;1.90;1.10;;;;;;;;;;5074208;28;20554;-69
2022/04/04 11:10:40;;;;;;;5.43;2.80;;;;;;;;;;5073941;28;20107;-69
2022/04/04 11:13:08;;;;;;;6.47;3.67;;;;;;;;;;5072215;28;20467;-69
2022/04/04 11:15:44;;;;;;;7.47;3.08;;;;;;;;;;5073586;28;20029;-69
2022/04/04 11:18:11;;;;;;;6.72;4.10;;;;;;;;;;5073590;28;20035;-69
2022/04/04 11:20:43;;;;;;;4.97;2.85;;;;;;;;;;5055508;28;20028;-69
2022/04/04 11:23:11;;;;;;;5.40;2.88;;;;;;;;;;5073565;28;20350;-69
2022/04/04 11:25:38;;;;;;;2.47;2.05;;;;;;;;;;5073180;28;20035;-69
2022/04/04 11:28:10;;;;;;;2.30;1.90;;;;;;;;;;5072589;28;20028;-69
2022/04/04 11:30:36;;;;;;;4.85;2.88;;;;;;;;;;5071481;28;20055;-69
2022/04/04 11:33:02;;;;;;;3.80;3.08;;;;;;;;;;5071466;28;20024;-69
2022/04/04 11:35:31;;;;;;;5.05;2.92;;;;;;;;;;5073217;28;20020;-69
2022/04/04 11:37:59;;;;;;;4.97;2.85;;;;;;;;;;5072461;28;20136;-69
2022/04/04 11:40:36;;;;;;;5.00;2.53;;;;;;;;;;5055632;28;20028;-69
2022/04/04 11:43:04;;;;;;;2.30;0.95;;;;;;;;;;5071427;28;20040;-69
2022/04/04 11:45:39;;;;;;;3.75;2.35;;;;;;;;;;5052723;28;20486;-69
2022/04/04 11:48:07;;;;;;;3.17;2.45;;;;;;;;;;5052871;28;20031;-69
2022/04/04 11:50:34;;;;;;;4.45;2.97;;;;;;;;;;5052884;28;20264;-69
2022/04/04 11:53:07;;;;;;;3.38;1.85;;;;;;;;;;5052304;28;20032;-68
2022/04/04 11:55:36;;;;;;;4.13;2.67;;;;;;;;;;5052226;28;20036;-69
2022/04/04 11:58:04;;;;;;;5.53;3.38;;;;;;;;;;5071795;28;20021;-69
2022/04/04 12:00:32;;;;;;;1.98;1.50;;;;;;;;;;5072009;28;20021;-69
2022/04/04 12:03:26;;;;;;;9.63;2.78;;;;;;;;;;5054789;28;20170;-68
2022/04/04 12:05:53;;;;;;;1.38;1.20;;;;;;;;;;4974120;28;20041;-69
2022/04/04 12:08:19;;;;;;;3.83;2.00;;;;;;;;;;4990684;28;20050;-69
2022/04/04 12:10:47;;;;;;;3.78;2.95;;;;;;;;;;4974720;28;20034;-69
2022/04/04 12:13:21;;;;;;;2.30;1.70;;;;;;;;;;4989409;28;20038;-69
2022/04/04 12:15:48;;;;;;;3.25;2.17;;;;;;;;;;4990332;28;20459;-69
2022/04/04 12:18:27;;;;;;;4.95;2.90;;;;;;;;;;4990108;28;20049;-69
2022/04/04 12:20:54;;;;;;;5.30;2.75;;;;;;;;;;4974223;28;20039;-69
2022/04/04 12:26:10;;;;;;;1.67;1.48;;;;;;;;;;4990202;28;20117;-68
2022/04/04 12:28:38;;;;;;;5.47;1.92;;;;;;;;;;4988955;28;20057;-69
2022/04/04 12:31:10;;;;;;;6.50;2.85;;;;;;;;;;4990064;28;20539;-69
2022/04/04 12:33:36;;;;;;;5.22;3.45;;;;;;;;;;4990197;28;20030;-69
2022/04/04 12:36:02;;;;;;;8.50;3.13;;;;;;;;;;4973532;28;20208;-69
2022/04/04 12:38:28;;;;;;;5.43;2.33;;;;;;;;;;4990463;28;20034;-69
2022/04/04 12:41:03;;;;;;;3.30;2.03;;;;;;;;;;4990017;28;20034;-69
2022/04/04 12:43:29;;;;;;;3.25;2.05;;;;;;;;;;5057800;28;20064;-69
2022/04/04 12:45:55;;;;;;;5.80;3.60;;;;;;;;;;5053719;28;20035;-69
2022/04/04 12:48:22;;;;;;;6.70;3.20;;;;;;;;;;5071917;28;20032;-68
2022/04/04 12:50:49;;;;;;;3.75;2.50;;;;;;;;;;5072077;28;20229;-68
2022/04/04 12:53:16;;;;;;;3.60;1.98;;;;;;;;;;5053401;28;20064;-68
2022/04/04 12:55:44;;;;;;;6.20;3.28;;;;;;;;;;5071995;28;20025;-68
2022/04/04 12:58:20;;;;;;;4.97;3.10;;;;;;;;;;5053036;28;20036;-68
2022/04/04 13:00:47;;;;;;;9.48;3.53;;;;;;;;;;5053753;28;20428;-68
2022/04/04 13:03:27;;;;;;;5.13;3.42;;;;;;;;;;5070877;28;20039;-68
2022/04/04 13:05:54;;;;;;;3.47;1.85;;;;;;;;;;5053528;28;20033;-68
2022/04/04 13:08:21;;;;;;;4.82;2.95;;;;;;;;;;5070730;28;20150;-69
2022/04/04 13:11:01;;;;;;;4.47;2.28;;;;;;;;;;5052742;28;20028;-68
2022/04/04 13:13:27;;;;;;;4.47;2.67;;;;;;;;;;5069576;28;20025;-68
2022/04/04 13:15:53;;;;;;;6.88;3.72;;;;;;;;;;5071663;28;20266;-68
2022/04/04 13:18:19;;;;;;;2.30;1.10;;;;;;;;;;5071494;28;20092;-68
2022/04/04 13:20:45;;;;;;;6.03;2.30;;;;;;;;;;5070158;28;20025;-69
2022/04/04 13:23:11;;;;;;;2.83;1.63;;;;;;;;;;5069236;28;20032;-68
2022/04/04 13:25:38;;;;;;;6.32;3.22;;;;;;;;;;5071363;28;20120;-68
2022/04/04 13:31:10;;;;;;;7.97;3.67;;;;;;;;;;5071184;28;20115;-69
2022/04/04 13:33:36;;;;;;;11.75;4.75;;;;;;;;;;5071079;28;20029;-69
2022/04/04 13:36:03;;;;;;;8.20;3.80;;;;;;;;;;5070819;28;20028;-69
2022/04/04 13:38:29;;;;;;;0.68;0.68;;;;;;;;;;5070755;28;20698;-68
2022/04/04 13:40:55;;;;;;;0.88;0.85;;;;;;;;;;5070787;28;20033;-68
2022/04/04 13:43:21;;;;;;;2.40;0.82;;;;;;;;;;5052258;28;20039;-69
2022/04/04 13:45:47;;;;;;;1.75;1.38;;;;;;;;;;5065014;28;20458;-69
2022/04/04 13:48:13;;;;;;;5.93;3.47;;;;;;;;;;5032672;28;20032;-68
2022/04/04 13:50:39;;;;;;;4.55;2.72;;;;;;;;;;5032495;28;20021;-69
2022/04/04 13:53:05;;;;;;;5.00;3.35;;;;;;;;;;5050743;28;20025;-68
2022/04/04 13:55:31;;;;;;;7.28;1.83;;;;;;;;;;5032984;28;20052;-68
2022/04/04 13:57:57;;;;;;;1.02;0.93;;;;;;;;;;5069431;28;20033;-68
2022/04/04 14:00:24;;;;;;;2.20;1.75;;;;;;;;;;5050854;28;20082;-69
2022/04/04 14:02:50;;;;;;;2.10;1.48;;;;;;;;;;5070140;28;20145;-68
2022/04/04 14:05:16;;;;;;;2.22;1.58;;;;;;;;;;5068956;28;20436;-68
2022/04/04 14:07:43;;;;;;;5.93;3.25;;;;;;;;;;5070292;28;20024;-68
2022/04/04 14:10:11;;;;;;;8.15;4.25;;;;;;;;;;5070119;28;20496;-68
2022/04/04 14:12:38;;;;;;;3.67;2.10;;;;;;;;;;5051329;28;20024;-68
2022/04/04 14:15:07;;;;;;;1.95;1.33;;;;;;;;;;5050906;28;20044;-69
2022/04/04 14:17:35;;;;;;;10.03;1.83;;;;;;;;;;5070255;28;20393;-68
2022/04/04 14:20:05;;;;;;;2.42;1.60;;;;;;;;;;5069848;28;20028;-68
2022/04/04 14:22:31;;;;;;;4.07;2.70;;;;;;;;;;5051254;28;20386;-68
2022/04/04 14:24:57;;;;;;;3.05;2.38;;;;;;;;;;5069955;28;20029;-68
2022/04/04 14:27:25;;;;;;;1.77;1.67;;;;;;;;;;5070211;28;20021;-68
2022/04/04 14:29:51;;;;;;;5.00;2.40;;;;;;;;;;5051149;28;20037;-68
2022/04/04 14:32:17;;;;;;;1.50;1.10;;;;;;;;;;5068404;28;20070;-68
2022/04/04 14:34:43;;;;;;;5.40;1.65;;;;;;;;;;5070513;28;20024;-68
2022/04/04 14:37:10;;;;;;;6.70;2.75;;;;;;;;;;5069689;28;20107;-68
2022/04/04 14:39:36;;;;;;;7.95;4.88;;;;;;;;;;5050950;28;20107;-68
2022/04/04 14:42:02;;;;;;;1.92;1.50;;;;;;;;;;5069255;28;20091;-68
2022/04/04 14:44:28;;;;;;;2.15;1.58;;;;;;;;;;5069212;28;20052;-68
2022/04/04 14:46:54;;;;;;;6.68;3.20;;;;;;;;;;5069699;28;20378;-68
2022/04/04 14:49:20;;;;;;;4.05;2.70;;;;;;;;;;5070121;28;20029;-69
2022/04/04 14:51:46;;;;;;;2.97;1.35;;;;;;;;;;5051101;28;20029;-68
2022/04/04 14:54:12;;;;;;;1.60;1.02;;;;;;;;;;5070180;28;20023;-68
2022/04/04 14:56:38;;;;;;;3.08;2.50;;;;;;;;;;5051327;28;20377;-68
2022/04/04 14:59:04;;;;;;;2.97;1.92;;;;;;;;;;5051150;28;20059;-68
2022/04/04 15:01:30;;;;;;;4.43;2.60;;;;;;;;;;5050976;28;20317;-68
2022/04/04 15:03:56;;;;;;;11.35;2.50;;;;;;;;;;5051902;28;20524;-68
2022/04/04 15:06:23;;;;;;;3.78;1.70;;;;;;;;;;5067873;28;20036;-68
2022/04/04 15:08:49;;;;;;;2.75;2.05;;;;;;;;;;5068981;28;20512;-68
2022/04/04 15:11:15;;;;;;;5.50;1.50;;;;;;;;;;5068729;28;20036;-68
2022/04/04 15:13:48;;;;;;;4.57;2.28;;;;;;;;;;5051008;28;20165;-68
2022/04/04 15:16:14;;;;;;;3.75;2.83;;;;;;;;;;5050564;28;20036;-68
2022/04/04 15:18:40;;;;;;;3.80;2.47;;;;;;;;;;5069283;28;20043;-68
2022/04/04 15:21:06;;;;;;;2.50;2.13;;;;;;;;;;5069213;28;20032;-68
2022/04/04 15:23:32;;;;;;;2.55;1.85;;;;;;;;;;5051063;28;20032;-68
2022/04/04 15:25:58;;;;;;;5.30;2.17;;;;;;;;;;5050829;28;20445;-68
2022/04/04 15:28:24;;;;;;;6.65;4.10;;;;;;;;;;5068941;28;20469;-68
2022/04/04 15:30:54;;;;;;;4.90;2.50;;;;;;;;;;5050449;28;20127;-68
2022/04/04 15:33:21;;;;;;;4.20;2.00;;;;;;;;;;5051416;28;20040;-68
2022/04/04 15:35:47;;;;;;;5.05;3.30;;;;;;;;;;5072793;28;20115;-68
2022/04/04 15:38:13;;;;;;;5.78;2.95;;;;;;;;;;5073273;28;20028;-68
2022/04/04 15:40:39;;;;;;;12.02;6.15;;;;;;;;;;5072731;28;20099;-68
2022/04/04 15:43:05;;;;;;;3.30;1.98;;;;;;;;;;5054686;28;20036;-68
2022/04/04 15:45:32;;;;;;;7.40;4.28;;;;;;;;;;5071935;28;20067;-68
2022/04/04 15:47:59;;;;;;;7.68;4.20;;;;;;;;;;5072754;28;20020;-68
2022/04/04 15:50:25;;;;;;;7.90;3.50;;;;;;;;;;5072650;28;20025;-69
2022/04/04 15:52:51;;;;;;;2.95;1.50;;;;;;;;;;5072780;28;20023;-68
2022/04/04 15:55:17;;;;;;;3.55;1.85;;;;;;;;;;5073032;28;20028;-68
2022/04/04 15:57:43;;;;;;;8.45;4.13;;;;;;;;;;5056668;28;20024;-68
2022/04/04 16:00:13;;;;;;;10.30;5.13;;;;;;;;;;5073805;28;20037;-68
2022/04/04 16:02:43;;;;;;;7.00;3.38;;;;;;;;;;5074282;28;20444;-68
2022/04/04 16:05:09;;;;;;;8.18;4.20;;;;;;;;;;5075018;28;20401;-68
2022/04/04 16:07:53;;;;;;;5.40;2.20;;;;;;;;;;5074886;28;20025;-68
2022/04/04 16:10:26;;;;;;;5.35;2.83;;;;;;;;;;5075716;28;20044;-68
2022/04/04 16:13:19;;;;;;;11.63;6.28;;;;;;;;;;5075644;28;20034;-68
2022/04/04 16:15:45;;;;;;;10.85;5.93;;;;;;;;;;5072185;28;20020;-68
2022/04/04 16:18:11;;;;;;;10.25;5.25;;;;;;;;;;5072680;28;20032;-68
2022/04/04 16:20:37;;;;;;;12.65;6.88;;;;;;;;;;5054077;28;20036;-68
2022/04/04 16:23:04;;;;;;;8.90;4.65;;;;;;;;;;5071606;28;20028;-68
2022/04/04 16:25:30;;;;;;;5.35;3.03;;;;;;;;;;5053333;28;20037;-68
2022/04/04 16:27:56;;;;;;;5.13;2.92;;;;;;;;;;5060798;28;20013;-68
2022/04/04 16:30:22;;;;;;;7.47;3.25;;;;;;;;;;5062969;28;20031;-70
2022/04/04 16:32:48;;;;;;;14.35;3.47;;;;;;;;;;5057671;28;20510;-68
2022/04/04 16:35:14;;;;;;;7.10;3.25;;;;;;;;;;5034355;28;20060;-68
2022/04/04 16:37:40;;;;;;;5.85;3.13;;;;;;;;;;5052124;28;20096;-68
2022/04/04 16:40:07;;;;;;;10.93;3.70;;;;;;;;;;5034205;28;20471;-68
2022/04/04 16:42:32;;;;;;;5.70;3.45;;;;;;;;;;5050954;28;20025;-68
2022/04/04 16:44:59;;;;;;;6.10;3.78;;;;;;;;;;5051631;28;20090;-68
2022/04/04 16:47:26;;;;;;;4.88;3.17;;;;;;;;;;5054005;28;20025;-68
2022/04/04 16:49:52;;;;;;;5.05;3.15;;;;;;;;;;5051641;28;20082;-68
2022/04/04 16:52:18;;;;;;;7.18;3.70;;;;;;;;;;5050906;28;20485;-68
2022/04/04 16:54:44;;;;;;;8.95;4.40;;;;;;;;;;5051233;28;20076;-68
2022/04/04 16:57:10;;;;;;;5.93;3.58;;;;;;;;;;5051997;28;20425;-68
2022/04/04 16:59:36;;;;;;;7.15;3.80;;;;;;;;;;5051225;28;20031;-68
2022/04/04 17:02:02;;;;;;;6.43;3.75;;;;;;;;;;5043168;28;20032;-68
2022/04/04 17:04:28;;;;;;;8.73;4.70;;;;;;;;;;5061481;28;20484;-68
2022/04/04 17:06:54;;;;;;;7.10;3.97;;;;;;;;;;5044041;28;20016;-68
2022/04/04 17:09:20;;;;;;;7.30;3.70;;;;;;;;;;5059197;28;20028;-69
2022/04/04 17:11:52;;;;;;;11.07;3.83;;;;;;;;;;5061227;28;20469;-68
2022/04/04 17:14:18;;;;;;;6.93;3.28;;;;;;;;;;5043121;28;20139;-68
2022/04/04 17:16:44;;;;;;;5.70;3.28;;;;;;;;;;5065106;28;20056;-68
2022/04/04 17:19:10;;;;;;;5.60;3.80;;;;;;;;;;5039191;28;20109;-68
2022/04/04 17:21:36;;;;;;;8.90;4.65;;;;;;;;;;5062245;28;20028;-68
2022/04/04 17:24:05;;;;;;;6.25;3.90;;;;;;;;;;5062352;28;20056;-68
2022/04/04 17:26:31;;;;;;;8.93;4.20;;;;;;;;;;5061277;28;20032;-68
2022/04/04 17:28:57;;;;;;;8.45;3.90;;;;;;;;;;5060477;28;20297;-68
2022/04/04 17:31:23;;;;;;;8.60;4.28;;;;;;;;;;5064070;28;20421;-69
2022/04/04 17:33:50;;;;;;;7.97;4.35;;;;;;;;;;5070635;28;20020;-68
2022/04/04 17:36:16;;;;;;;8.80;4.43;;;;;;;;;;5070573;28;20070;-68
2022/04/04 17:38:43;;;;;;;8.13;4.25;;;;;;;;;;5069881;28;20016;-68
2022/04/04 17:41:09;;;;;;;6.97;4.15;;;;;;;;;;5070104;28;20048;-68
2022/04/04 17:43:35;;;;;;;7.00;3.20;;;;;;;;;;5069641;28;20033;-68
2022/04/04 17:46:01;;;;;;;6.95;3.92;;;;;;;;;;5067105;28;20029;-69
2022/04/04 17:48:27;;;;;;;6.03;3.83;;;;;;;;;;5052496;28;20036;-69
2022/04/04 17:50:53;;;;;;;12.70;3.53;;;;;;;;;;5066724;28;20025;-69
2022/04/04 17:53:21;;;;;;;8.50;3.92;;;;;;;;;;5072327;28;20025;-68
2022/04/04 18:11:12;;;;;;;4.70;2.53;;;;;;;;;;5009752;28;20073;-69
2022/04/04 18:13:38;;;;;;;6.43;2.90;;;;;;;;;;4988968;28;20053;-69
2022/04/04 18:16:05;;;;;;;5.72;2.78;;;;;;;;;;5005676;28;20042;-69
2022/04/04 18:18:31;;;;;;;5.53;1.38;;;;;;;;;;5007552;28;20061;-69
2022/04/04 18:20:57;;;;;;;2.63;1.63;;;;;;;;;;5007025;28;20184;-69
2022/04/04 18:23:23;;;;;;;5.07;3.00;;;;;;;;;;5006882;28;20164;-69
2022/04/04 18:25:49;;;;;;;5.10;2.95;;;;;;;;;;4990273;28;20041;-68
2022/04/04 18:28:16;;;;;;;1.42;1.20;;;;;;;;;;5006607;28;20559;-69
2022/04/04 18:30:42;;;;;;;3.17;2.40;;;;;;;;;;5006585;28;20407;-69
2022/04/04 18:33:08;;;;;;;5.43;2.88;;;;;;;;;;5005547;28;20041;-68
2022/04/04 18:35:34;;;;;;;3.70;1.92;;;;;;;;;;5021547;28;20029;-69
2022/04/04 18:38:01;;;;;;;5.22;2.67;;;;;;;;;;5060996;28;20272;-68
2022/04/04 18:40:27;;;;;;;7.53;2.53;;;;;;;;;;5064962;28;20025;-68
2022/04/04 18:42:53;;;;;;;2.70;1.42;;;;;;;;;;5064691;28;20028;-68
2022/04/04 18:45:20;;;;;;;1.42;1.25;;;;;;;;;;5055714;28;20032;-68
2022/04/04 18:47:48;;;;;;;2.92;1.50;;;;;;;;;;5067731;28;20087;-69
2022/04/04 18:50:19;;;;;;;5.68;3.05;;;;;;;;;;5063522;28;20028;-69
2022/04/04 18:52:45;;;;;;;10.93;3.08;;;;;;;;;;5058887;28;20087;-68
2022/04/04 18:55:11;;;;;;;7.78;3.40;;;;;;;;;;5038823;28;20395;-69
2022/04/04 18:57:37;;;;;;;7.15;2.58;;;;;;;;;;5044393;28;20070;-69
2022/04/04 19:00:04;;;;;;;4.63;2.78;;;;;;;;;;5072931;28;20032;-68
2022/04/04 19:02:30;;;;;;;3.05;2.20;;;;;;;;;;5058409;28;20032;-69
2022/04/04 19:04:56;;;;;;;7.10;3.45;;;;;;;;;;5060939;28;20036;-69
2022/04/04 19:07:22;;;;;;;4.55;2.50;;;;;;;;;;5062959;28;20619;-68
2022/04/04 19:09:48;;;;;;;5.00;2.83;;;;;;;;;;5067111;28;20269;-69
2022/04/04 19:12:14;;;;;;;4.90;3.03;;;;;;;;;;5072685;28;20048;-68
2022/04/04 19:14:40;;;;;;;0.90;0.77;;;;;;;;;;5054716;28;20119;-69
2022/04/04 19:17:06;;;;;;;2.90;2.00;;;;;;;;;;5071803;28;20031;-69
2022/04/04 19:19:32;;;;;;;4.57;1.80;;;;;;;;;;5073139;28;20025;-69